Lakeview, Montana
Current Conditions -  °F | °C
As of 5:53 AM on Thursday 27 Nov 2014 (Local Time) from KRXE Reporting Station
Clear Clear  
Wind Chill: 33°   Ceiling: Unl
Heat Index: 33°   Visibility: 10mi
Dew Point: 30°   Wind: 3mph
Humidity: 89%   Direction: NA
Pressure: 30.19"   Gusts: NA
Location:  44.6°N, 111.81°W
Report Text: KRXE 271253Z AUTO VRB03KT 10SM CLR 01/M01 A3019 RMK AO2 SLP234 T00061011
Loading
Personal Weather Stations






























Interactive Weather Map New forecast layout! Learn more

10-Day Weather Forecast

Advertisements
Track Severe Weather on mobile